Covington, Iowa
Current Conditions -  °F | °C
As of 1:52 PM on Friday 28 Nov 2014 (Local Time) from KCID Reporting Station
Clear Clear  
Wind Chill: 23°   Ceiling: Unl
Heat Index: 30°   Visibility: 8mi
Dew Point: 24°   Wind: 7mph
Humidity: 79%   Direction: 140°SE
Pressure: 29.89"   Gusts: NA
Location:  42.0483°N, 91.7982°W
Report Text: KCID 281952Z 14006KT 8SM CLR M01/M04 A2989 RMK AO2 SLP133 T10111044
Loading
Personal Weather Stations






























Interactive Weather Map New forecast layout! Learn more

10-Day Weather Forecast

Advertisements
Track Severe Weather on mobile